createdAt,value
2019-02-20T00:00:03.667Z,0.00
2019-02-20T00:01:03.656Z,0.00
2019-02-20T00:02:03.629Z,0.00
2019-02-20T00:03:03.615Z,0.00
2019-02-20T00:04:03.605Z,0.00
2019-02-20T00:05:03.598Z,0.00
2019-02-20T00:06:03.599Z,0.00
2019-02-20T00:07:03.614Z,0.00
2019-02-20T00:08:03.583Z,0.00
2019-02-20T00:09:03.547Z,0.00
2019-02-20T00:10:03.544Z,0.00
2019-02-20T00:11:03.548Z,0.00
2019-02-20T00:12:03.521Z,0.00
2019-02-20T00:13:03.548Z,0.00
2019-02-20T00:14:03.499Z,0.00
2019-02-20T00:15:03.495Z,0.00
2019-02-20T00:16:03.497Z,0.00
2019-02-20T00:17:03.473Z,0.00
2019-02-20T00:18:03.474Z,0.00
2019-02-20T00:19:03.445Z,0.00
2019-02-20T00:20:03.460Z,0.00
2019-02-20T00:21:03.424Z,0.00
2019-02-20T00:22:03.419Z,0.00
2019-02-20T00:23:03.409Z,0.00
2019-02-20T00:24:03.401Z,0.00
2019-02-20T00:25:03.387Z,0.00
2019-02-20T00:26:03.393Z,0.00
2019-02-20T00:27:03.370Z,0.00
2019-02-20T00:28:03.352Z,0.00
2019-02-20T00:29:03.357Z,0.00
2019-02-20T00:30:03.840Z,0.00
2019-02-20T00:31:03.341Z,0.00
2019-02-20T00:32:03.328Z,0.00
2019-02-20T00:33:03.295Z,0.00
2019-02-20T00:34:03.293Z,0.00
2019-02-20T00:35:03.296Z,0.00
2019-02-20T00:36:03.271Z,0.00
2019-02-20T00:37:03.292Z,0.00
2019-02-20T00:38:03.309Z,0.00
2019-02-20T00:39:03.286Z,0.00
2019-02-20T00:40:03.231Z,0.00
2019-02-20T00:41:03.214Z,0.00
2019-02-20T00:42:03.226Z,0.00
2019-02-20T00:43:03.196Z,0.00
2019-02-20T00:44:03.225Z,0.00
2019-02-20T00:45:03.195Z,0.00
2019-02-20T00:46:03.243Z,0.00
2019-02-20T00:47:03.174Z,0.00
2019-02-20T00:48:03.243Z,0.00
2019-02-20T00:49:03.133Z,0.00
2019-02-20T00:50:03.254Z,0.00
2019-02-20T00:51:03.105Z,0.00
2019-02-20T00:52:03.094Z,0.00
2019-02-20T00:53:03.105Z,0.00
2019-02-20T00:54:03.080Z,0.00
2019-02-20T00:55:03.081Z,0.00
2019-02-20T00:56:03.064Z,0.00
2019-02-20T00:57:03.075Z,0.00
2019-02-20T00:58:03.065Z,0.00
2019-02-20T00:59:03.046Z,0.00
2019-02-20T01:00:03.008Z,0.00
2019-02-20T01:01:02.997Z,0.00
2019-02-20T01:02:02.994Z,0.00
2019-02-20T01:03:02.998Z,0.00
2019-02-20T01:04:02.966Z,0.00
2019-02-20T01:05:02.960Z,0.00
2019-02-20T01:06:04.925Z,0.00
2019-02-20T01:07:02.964Z,0.00
2019-02-20T01:08:02.984Z,0.00
2019-02-20T01:09:02.915Z,0.00
2019-02-20T01:10:02.905Z,0.00
2019-02-20T01:11:02.890Z,0.00
2019-02-20T01:12:02.879Z,0.00
2019-02-20T01:13:02.885Z,0.00
2019-02-20T01:14:02.890Z,0.00
2019-02-20T01:15:02.877Z,0.00
2019-02-20T01:16:02.841Z,0.00
2019-02-20T01:17:02.830Z,0.00
2019-02-20T01:18:02.819Z,0.00
2019-02-20T01:19:02.803Z,0.00
2019-02-20T01:20:02.811Z,0.00
2019-02-20T01:21:02.788Z,0.00
2019-02-20T01:22:02.770Z,0.00
2019-02-20T01:23:02.761Z,0.00
2019-02-20T01:24:02.751Z,0.00
2019-02-20T01:25:02.755Z,0.00
2019-02-20T01:26:02.732Z,0.00
2019-02-20T01:27:02.726Z,0.00
2019-02-20T01:28:02.760Z,0.00
2019-02-20T01:29:02.701Z,0.00
2019-02-20T01:30:02.706Z,0.00
2019-02-20T01:31:02.685Z,0.00
2019-02-20T01:32:02.663Z,0.00
2019-02-20T01:33:02.741Z,0.00
2019-02-20T01:34:02.655Z,0.00
2019-02-20T01:35:02.807Z,0.00
2019-02-20T01:36:02.664Z,0.00
2019-02-20T01:37:02.621Z,0.00
2019-02-20T01:38:02.603Z,0.00
2019-02-20T01:39:02.597Z,0.00
2019-02-20T01:40:02.604Z,0.00
2019-02-20T01:41:02.571Z,0.00
2019-02-20T01:42:02.560Z,0.00
2019-02-20T01:43:02.567Z,0.00
2019-02-20T01:44:02.550Z,0.00
2019-02-20T01:45:02.557Z,0.00
2019-02-20T01:46:02.519Z,0.00
2019-02-20T01:47:02.530Z,0.00
2019-02-20T01:48:02.516Z,0.00
2019-02-20T01:49:02.491Z,0.00
2019-02-20T01:50:02.473Z,0.00
2019-02-20T01:51:02.464Z,0.00
2019-02-20T01:52:02.485Z,0.00
2019-02-20T01:53:10.102Z,0.00
2019-02-20T01:54:03.441Z,0.00
2019-02-20T01:55:02.417Z,0.00
2019-02-20T01:56:02.407Z,0.00
2019-02-20T01:57:02.398Z,0.00
2019-02-20T01:58:02.422Z,0.00
2019-02-20T01:59:02.382Z,0.00
2019-02-20T02:00:02.372Z,0.00
2019-02-20T02:01:02.365Z,0.00
2019-02-20T02:02:02.344Z,0.00
2019-02-20T02:03:02.331Z,0.00
2019-02-20T02:04:02.376Z,0.00
2019-02-20T02:05:02.313Z,0.00
2019-02-20T02:06:02.328Z,0.00
2019-02-20T02:07:02.295Z,0.00
2019-02-20T02:08:02.298Z,0.00
2019-02-20T02:09:02.297Z,0.00
2019-02-20T02:10:02.262Z,0.00
2019-02-20T02:11:02.253Z,0.00
2019-02-20T02:12:02.271Z,0.00
2019-02-20T02:13:02.236Z,0.00
2019-02-20T02:14:02.234Z,0.00
2019-02-20T02:15:02.205Z,0.00
2019-02-20T02:16:02.195Z,0.00
2019-02-20T02:17:02.194Z,0.00
2019-02-20T02:18:02.222Z,0.00
2019-02-20T02:19:02.189Z,0.00
2019-02-20T02:20:02.203Z,0.00
2019-02-20T02:21:02.169Z,0.00
2019-02-20T02:22:02.246Z,0.00
2019-02-20T02:23:02.156Z,0.00
2019-02-20T02:24:02.116Z,0.00
2019-02-20T02:25:02.111Z,0.00
2019-02-20T02:26:10.465Z,0.00
2019-02-20T02:27:03.137Z,0.00
2019-02-20T02:28:02.064Z,0.00
2019-02-20T02:29:02.080Z,0.00
2019-02-20T02:30:02.050Z,0.00
2019-02-20T02:31:02.055Z,0.00
2019-02-20T02:32:02.062Z,0.00
2019-02-20T02:33:02.017Z,0.00
2019-02-20T02:34:02.002Z,0.00
2019-02-20T02:35:01.993Z,0.00
2019-02-20T02:36:02.005Z,0.00
2019-02-20T02:37:01.970Z,0.00
2019-02-20T02:38:01.983Z,0.00
2019-02-20T02:39:01.981Z,0.00
2019-02-20T02:40:01.952Z,0.00
2019-02-20T02:41:01.938Z,0.00
2019-02-20T02:42:01.966Z,0.00
2019-02-20T02:43:01.950Z,0.00
2019-02-20T02:44:01.957Z,0.00
2019-02-20T02:45:01.893Z,0.00
2019-02-20T02:46:01.875Z,0.00
2019-02-20T02:47:01.861Z,0.00
2019-02-20T02:48:01.873Z,0.00
2019-02-20T02:49:01.852Z,0.00
2019-02-20T02:50:01.842Z,0.00
2019-02-20T02:51:01.832Z,0.00
2019-02-20T02:52:01.843Z,0.00
2019-02-20T02:53:01.845Z,0.00
2019-02-20T02:54:01.789Z,0.00
2019-02-20T02:55:01.784Z,0.00
2019-02-20T02:56:01.766Z,0.00
2019-02-20T02:57:01.774Z,0.00
2019-02-20T02:58:01.773Z,0.00
2019-02-20T02:59:01.775Z,0.00
2019-02-20T03:00:01.752Z,0.00
2019-02-20T03:01:01.716Z,0.00
2019-02-20T03:02:01.703Z,0.00
2019-02-20T03:03:01.696Z,0.00
2019-02-20T03:04:01.692Z,0.00
2019-02-20T03:05:01.721Z,0.00
2019-02-20T03:06:01.678Z,0.00
2019-02-20T03:07:01.724Z,0.00
2019-02-20T03:08:01.654Z,0.00
2019-02-20T03:09:01.658Z,0.00
2019-02-20T03:10:01.673Z,0.00
2019-02-20T03:11:01.606Z,0.00
2019-02-20T03:12:01.601Z,0.00
2019-02-20T03:13:01.589Z,0.00
2019-02-20T03:14:01.577Z,0.00
2019-02-20T03:15:01.573Z,0.00
2019-02-20T03:16:01.578Z,0.00
2019-02-20T03:17:01.543Z,0.00
2019-02-20T03:18:01.538Z,0.00
2019-02-20T03:19:01.570Z,0.00
2019-02-20T03:20:01.520Z,0.00
2019-02-20T03:21:01.518Z,0.00
2019-02-20T03:22:01.541Z,0.00
2019-02-20T03:23:01.477Z,0.00
2019-02-20T03:24:01.481Z,0.00
2019-02-20T03:25:01.477Z,0.00
2019-02-20T03:26:01.459Z,0.00
2019-02-20T03:27:01.466Z,0.00
2019-02-20T03:28:01.426Z,0.00
2019-02-20T03:29:01.419Z,0.00
2019-02-20T03:30:01.461Z,0.00
2019-02-20T03:31:01.456Z,0.00
2019-02-20T03:32:01.400Z,0.00
2019-02-20T03:33:01.397Z,0.00
2019-02-20T03:34:01.387Z,0.00
2019-02-20T03:35:01.352Z,0.00
2019-02-20T03:36:01.359Z,0.00
2019-02-20T03:37:01.339Z,0.00
2019-02-20T03:38:01.351Z,0.00
2019-02-20T03:39:01.316Z,0.00
2019-02-20T03:40:01.326Z,0.00
2019-02-20T03:41:01.307Z,0.00
2019-02-20T03:42:01.371Z,0.00
2019-02-20T03:43:01.279Z,0.00
2019-02-20T03:44:01.385Z,0.00
2019-02-20T03:45:01.270Z,0.00
2019-02-20T03:46:01.285Z,0.00
2019-02-20T03:47:01.242Z,0.00
2019-02-20T03:48:01.219Z,0.00
2019-02-20T03:49:01.209Z,0.00
2019-02-20T03:50:01.197Z,0.00
2019-02-20T03:51:01.186Z,0.00
2019-02-20T03:52:01.210Z,0.00
2019-02-20T03:53:01.163Z,0.00
2019-02-20T03:54:01.175Z,0.00
2019-02-20T03:55:01.138Z,0.00
2019-02-20T03:56:01.241Z,0.00
2019-02-20T03:57:01.146Z,0.00
2019-02-20T03:58:01.264Z,0.00
2019-02-20T03:59:01.119Z,0.00
2019-02-20T04:00:01.084Z,0.00
2019-02-20T04:01:01.081Z,0.00
2019-02-20T04:02:01.070Z,0.00
2019-02-20T04:03:01.086Z,0.00
2019-02-20T04:04:01.050Z,0.00
2019-02-20T04:05:01.041Z,0.00
2019-02-20T04:06:01.022Z,0.00
2019-02-20T04:07:01.057Z,0.00
2019-02-20T04:08:01.018Z,0.00
2019-02-20T04:09:01.051Z,0.00
2019-02-20T04:10:00.985Z,0.00
2019-02-20T04:11:00.976Z,0.00
2019-02-20T04:12:00.968Z,0.00
2019-02-20T04:13:00.951Z,0.00
2019-02-20T04:14:00.963Z,0.00
2019-02-20T04:15:00.929Z,0.00
2019-02-20T04:16:00.932Z,0.00
2019-02-20T04:17:00.949Z,0.00
2019-02-20T04:18:00.896Z,0.00
2019-02-20T04:19:00.888Z,0.00
2019-02-20T04:20:00.872Z,0.00
2019-02-20T04:21:00.863Z,0.00
2019-02-20T04:22:00.854Z,0.00
2019-02-20T04:23:00.874Z,0.00
2019-02-20T04:24:02.797Z,0.00
2019-02-20T04:25:00.874Z,0.00
2019-02-20T04:26:00.809Z,0.00
2019-02-20T04:27:00.814Z,0.00
2019-02-20T04:28:00.804Z,0.00
2019-02-20T04:29:00.778Z,0.00
2019-02-20T04:30:00.769Z,0.00
2019-02-20T04:31:00.796Z,0.00
2019-02-20T04:32:00.781Z,0.00
2019-02-20T04:33:00.736Z,0.00
2019-02-20T04:34:00.751Z,0.00
2019-02-20T04:35:00.719Z,0.00
2019-02-20T04:36:00.712Z,0.00
2019-02-20T04:37:00.730Z,0.00
2019-02-20T04:38:00.737Z,0.00
2019-02-20T04:39:00.673Z,0.00
2019-02-20T04:40:00.728Z,0.00
2019-02-20T04:41:00.654Z,0.00
2019-02-20T04:42:00.642Z,0.00
2019-02-20T04:43:00.712Z,0.00
2019-02-20T04:44:00.653Z,0.00
2019-02-20T04:45:00.623Z,0.00
2019-02-20T04:46:00.605Z,0.00
2019-02-20T04:47:00.582Z,0.00
2019-02-20T04:48:00.694Z,0.00
2019-02-20T04:49:00.566Z,0.00
2019-02-20T04:50:00.553Z,0.00
2019-02-20T04:51:00.547Z,0.00
2019-02-20T04:52:00.531Z,0.00
2019-02-20T04:53:00.539Z,0.00
2019-02-20T04:54:00.552Z,0.00
2019-02-20T04:55:00.505Z,0.00
2019-02-20T04:56:00.494Z,0.00
2019-02-20T04:57:00.488Z,0.00
2019-02-20T04:58:00.498Z,0.00
2019-02-20T04:59:00.456Z,0.00
2019-02-20T05:00:00.639Z,0.00
2019-02-20T05:01:00.437Z,0.00
2019-02-20T05:02:00.514Z,0.00
2019-02-20T05:03:00.445Z,0.00
2019-02-20T05:04:00.405Z,0.00
2019-02-20T05:05:00.582Z,0.00
2019-02-20T05:06:00.405Z,0.00
2019-02-20T05:07:00.404Z,0.00
2019-02-20T05:08:00.384Z,0.00
2019-02-20T05:09:00.354Z,0.00
2019-02-20T05:10:00.390Z,0.00
2019-02-20T05:11:00.330Z,0.00
2019-02-20T05:12:00.452Z,0.00
2019-02-20T05:13:00.343Z,0.00
2019-02-20T05:14:00.318Z,0.00
2019-02-20T05:15:00.354Z,0.00
2019-02-20T05:16:00.285Z,0.00
2019-02-20T05:17:00.278Z,0.00
2019-02-20T05:18:00.283Z,0.00
2019-02-20T05:19:00.242Z,0.00
2019-02-20T05:20:00.338Z,0.00
2019-02-20T05:21:00.225Z,0.00
2019-02-20T05:22:00.217Z,0.00
2019-02-20T05:23:00.233Z,0.00
2019-02-20T05:24:00.503Z,0.00
2019-02-20T05:25:00.244Z,0.00
2019-02-20T05:26:00.184Z,0.00
2019-02-20T05:27:00.170Z,0.00
2019-02-20T05:28:00.271Z,0.00
2019-02-20T05:29:00.213Z,0.00
2019-02-20T05:30:00.376Z,0.00
2019-02-20T05:31:00.159Z,0.00
2019-02-20T05:32:00.103Z,0.00
2019-02-20T05:33:00.112Z,0.00
2019-02-20T05:34:00.124Z,0.00
2019-02-20T05:35:00.486Z,0.00
2019-02-20T05:36:00.062Z,0.00
2019-02-20T05:37:00.064Z,0.00
2019-02-20T05:38:00.060Z,0.00
2019-02-20T05:39:00.060Z,0.00
2019-02-20T05:40:00.040Z,0.00
2019-02-20T05:41:00.011Z,0.00
2019-02-20T05:42:00.006Z,0.00
2019-02-20T05:42:59.986Z,0.00
2019-02-20T05:43:59.993Z,0.00
2019-02-20T05:45:00.033Z,0.00
2019-02-20T05:45:59.960Z,0.00
2019-02-20T05:46:59.950Z,0.00
2019-02-20T05:47:59.945Z,0.00
2019-02-20T05:48:59.928Z,0.00
2019-02-20T05:49:59.914Z,0.00
2019-02-20T05:50:59.922Z,0.00
2019-02-20T05:51:59.901Z,0.00
2019-02-20T05:52:59.886Z,0.00
2019-02-20T05:53:59.888Z,0.00
2019-02-20T05:54:59.872Z,0.00
2019-02-20T05:55:59.871Z,0.00
2019-02-20T05:56:59.864Z,0.00
2019-02-20T05:57:59.830Z,0.00
2019-02-20T05:58:59.863Z,0.00
2019-02-20T05:59:59.811Z,0.00
2019-02-20T06:01:00.158Z,0.00
2019-02-20T06:01:59.785Z,0.00
2019-02-20T06:02:59.844Z,0.00
2019-02-20T06:03:59.926Z,0.00
2019-02-20T06:04:59.767Z,0.00
2019-02-20T06:05:59.746Z,0.00
2019-02-20T06:06:59.787Z,0.00
2019-02-20T06:07:59.721Z,0.00
2019-02-20T06:08:59.718Z,0.00
2019-02-20T06:09:59.707Z,0.00
2019-02-20T06:10:59.696Z,0.00
2019-02-20T06:11:59.704Z,0.00
2019-02-20T06:12:59.733Z,0.00
2019-02-20T06:13:59.733Z,0.00
2019-02-20T06:14:59.681Z,0.00
2019-02-20T06:15:59.689Z,0.00
2019-02-20T06:16:59.628Z,0.00
2019-02-20T06:17:59.626Z,0.00
2019-02-20T06:18:59.614Z,0.00
2019-02-20T06:19:59.693Z,0.00
2019-02-20T06:20:59.650Z,0.00
2019-02-20T06:21:59.672Z,0.00
2019-02-20T06:22:59.674Z,0.00
2019-02-20T06:23:59.670Z,0.00
2019-02-20T06:24:59.752Z,0.00
2019-02-20T06:25:59.540Z,0.00
2019-02-20T06:26:59.553Z,0.00
2019-02-20T06:27:59.570Z,5.62
2019-02-20T06:29:00.299Z,5.62
2019-02-20T06:29:59.508Z,5.62
2019-02-20T06:30:59.481Z,5.62
2019-02-20T06:31:59.486Z,5.62
2019-02-20T06:32:59.498Z,5.62
2019-02-20T06:33:59.484Z,5.62
2019-02-20T06:34:59.456Z,11.25
2019-02-20T06:35:59.429Z,11.25
2019-02-20T06:36:59.416Z,11.25
2019-02-20T06:37:59.431Z,11.25
2019-02-20T06:38:59.403Z,11.25
2019-02-20T06:39:59.400Z,16.88
2019-02-20T06:40:59.442Z,16.88
2019-02-20T06:41:59.429Z,16.88
2019-02-20T06:42:59.373Z,16.88
2019-02-20T06:43:59.450Z,22.50
2019-02-20T06:44:59.483Z,22.50
2019-02-20T06:45:59.364Z,22.50
2019-02-20T06:46:59.318Z,28.12
2019-02-20T06:47:59.314Z,28.12
2019-02-20T06:48:59.404Z,28.12
2019-02-20T06:50:01.214Z,33.75
2019-02-20T06:50:59.337Z,33.75
2019-02-20T06:51:59.256Z,33.75
2019-02-20T06:52:59.288Z,39.38
2019-02-20T06:53:59.230Z,39.38
2019-02-20T06:54:59.314Z,39.38
2019-02-20T06:55:59.370Z,39.38
2019-02-20T06:56:59.427Z,45.00
2019-02-20T06:57:59.279Z,45.00
2019-02-20T06:58:59.375Z,45.00
2019-02-20T06:59:59.200Z,50.62
2019-02-20T07:00:59.223Z,50.62
2019-02-20T07:01:59.474Z,50.62
2019-02-20T07:02:59.161Z,56.25
2019-02-20T07:03:59.173Z,56.25
2019-02-20T07:04:59.115Z,61.88
2019-02-20T07:05:59.110Z,61.88
2019-02-20T07:06:59.125Z,67.50
2019-02-20T07:07:59.086Z,73.12
2019-02-20T07:08:59.073Z,73.12
2019-02-20T07:09:59.141Z,78.75
2019-02-20T07:10:59.055Z,78.75
2019-02-20T07:11:59.077Z,78.75
2019-02-20T07:12:59.097Z,84.38
2019-02-20T07:13:59.032Z,84.38
2019-02-20T07:14:59.010Z,84.38
2019-02-20T07:15:59.008Z,90.00
2019-02-20T07:16:59.021Z,90.00
2019-02-20T07:17:59.310Z,95.62
2019-02-20T07:18:59.017Z,95.62
2019-02-20T07:19:59.039Z,95.62
2019-02-20T07:20:58.949Z,101.25
2019-02-20T07:21:58.977Z,101.25
2019-02-20T07:22:58.981Z,101.25
2019-02-20T07:23:58.976Z,106.88
2019-02-20T07:25:03.053Z,106.88
2019-02-20T07:25:58.895Z,118.12
2019-02-20T07:26:58.916Z,123.75
2019-02-20T07:27:58.927Z,129.38
2019-02-20T07:28:58.862Z,135.00
2019-02-20T07:29:58.872Z,146.25
2019-02-20T07:30:58.858Z,151.88
2019-02-20T07:31:58.836Z,157.50
2019-02-20T07:32:58.832Z,157.50
2019-02-20T07:33:58.818Z,157.50
2019-02-20T07:34:58.869Z,163.12
2019-02-20T07:35:58.797Z,174.38
2019-02-20T07:36:58.810Z,185.62
2019-02-20T07:37:58.800Z,191.25
2019-02-20T07:38:58.771Z,185.62
2019-02-20T07:39:58.829Z,180.00
2019-02-20T07:40:58.911Z,185.62
2019-02-20T07:41:58.982Z,185.62
2019-02-20T07:42:58.905Z,180.00
2019-02-20T07:43:58.773Z,174.38
2019-02-20T07:44:58.793Z,168.75
2019-02-20T07:45:58.715Z,163.12
2019-02-20T07:46:58.977Z,157.50
2019-02-20T07:47:58.971Z,157.50
2019-02-20T07:48:58.777Z,163.12
2019-02-20T07:49:58.688Z,168.75
2019-02-20T07:50:58.617Z,180.00
2019-02-20T07:51:58.611Z,180.00
2019-02-20T07:52:58.617Z,180.00
2019-02-20T07:53:58.594Z,180.00
2019-02-20T07:54:58.598Z,180.00
2019-02-20T07:55:58.592Z,191.25
2019-02-20T07:56:58.557Z,196.88
2019-02-20T07:57:58.546Z,202.50
2019-02-20T07:58:58.558Z,208.12
2019-02-20T07:59:58.566Z,219.38
2019-02-20T08:00:58.590Z,219.38
2019-02-20T08:01:58.572Z,225.00
2019-02-20T08:02:58.506Z,230.62
2019-02-20T08:03:58.508Z,236.25
2019-02-20T08:04:58.518Z,236.25
2019-02-20T08:05:59.075Z,236.25
2019-02-20T08:06:58.489Z,241.88
2019-02-20T08:07:58.488Z,241.88
2019-02-20T08:08:58.474Z,230.62
2019-02-20T08:09:58.436Z,225.00
2019-02-20T08:10:58.405Z,230.62
2019-02-20T08:11:58.439Z,236.25
2019-02-20T08:12:58.515Z,241.88
2019-02-20T08:13:58.399Z,241.88
2019-02-20T08:14:59.109Z,247.50
2019-02-20T08:15:58.412Z,253.12
2019-02-20T08:16:58.355Z,258.75
2019-02-20T08:17:58.380Z,264.38
2019-02-20T08:18:58.373Z,264.38
2019-02-20T08:19:58.315Z,275.62
2019-02-20T08:20:58.301Z,286.88
2019-02-20T08:21:58.445Z,292.50
2019-02-20T08:22:58.308Z,292.50
2019-02-20T08:23:58.264Z,292.50
2019-02-20T08:24:58.259Z,303.75
2019-02-20T08:25:59.737Z,309.38
2019-02-20T08:26:58.593Z,315.00
2019-02-20T08:27:58.890Z,331.88
2019-02-20T08:28:58.218Z,337.50
2019-02-20T08:29:58.337Z,343.12
2019-02-20T08:30:58.243Z,354.38
2019-02-20T08:31:58.190Z,354.38
2019-02-20T08:32:58.191Z,337.50
2019-02-20T08:33:58.421Z,337.50
2019-02-20T08:34:58.308Z,354.38
2019-02-20T08:35:58.195Z,371.25
2019-02-20T08:36:58.223Z,376.88
2019-02-20T08:37:58.146Z,371.25
2019-02-20T08:38:58.109Z,371.25
2019-02-20T08:39:58.110Z,354.38
2019-02-20T08:40:58.135Z,354.38
2019-02-20T08:41:58.136Z,365.62
2019-02-20T08:42:58.067Z,382.50
2019-02-20T08:43:58.131Z,376.88
2019-02-20T08:44:58.321Z,365.62
2019-02-20T08:45:58.202Z,376.88
2019-02-20T08:46:58.019Z,399.38
2019-02-20T08:47:58.002Z,410.62
2019-02-20T08:48:57.993Z,421.88
2019-02-20T08:49:58.011Z,438.75
2019-02-20T08:50:58.011Z,450.00
2019-02-20T08:51:57.994Z,461.25
2019-02-20T08:52:58.018Z,472.50
2019-02-20T08:53:57.957Z,472.50
2019-02-20T08:54:58.158Z,466.88
2019-02-20T08:55:57.927Z,455.62
2019-02-20T08:56:57.969Z,444.38
2019-02-20T08:57:57.973Z,421.88
2019-02-20T08:58:58.345Z,410.62
2019-02-20T08:59:57.924Z,416.25
2019-02-20T09:00:57.865Z,410.62
2019-02-20T09:01:57.955Z,405.00
2019-02-20T09:02:57.840Z,399.38
2019-02-20T09:03:57.869Z,405.00
2019-02-20T09:04:57.868Z,410.62
2019-02-20T09:05:58.290Z,416.25
2019-02-20T09:06:58.181Z,405.00
2019-02-20T09:07:57.854Z,399.38
2019-02-20T09:08:57.777Z,399.38
2019-02-20T09:09:57.835Z,405.00
2019-02-20T09:10:57.760Z,405.00
2019-02-20T09:11:57.807Z,399.38
2019-02-20T09:12:57.943Z,393.75
2019-02-20T09:13:57.967Z,376.88
2019-02-20T09:14:58.165Z,371.25
2019-02-20T09:15:58.108Z,376.88
2019-02-20T09:16:57.979Z,388.12
2019-02-20T09:17:57.731Z,405.00
2019-02-20T09:18:57.715Z,421.88
2019-02-20T09:19:57.668Z,444.38
2019-02-20T09:20:57.675Z,461.25
2019-02-20T09:21:57.665Z,461.25
2019-02-20T09:22:57.652Z,450.00
2019-02-20T09:23:57.636Z,427.50
2019-02-20T09:24:57.699Z,421.88
2019-02-20T09:25:57.596Z,438.75
2019-02-20T09:26:57.614Z,450.00
2019-02-20T09:27:57.568Z,455.62
2019-02-20T09:28:57.564Z,461.25
2019-02-20T09:29:57.552Z,466.88
2019-02-20T09:30:57.566Z,472.50
2019-02-20T09:31:57.534Z,500.62
2019-02-20T09:32:57.581Z,523.12
2019-02-20T09:33:57.537Z,545.62
2019-02-20T09:34:57.495Z,562.50
2019-02-20T09:35:57.573Z,562.50
2019-02-20T09:36:57.869Z,573.75
2019-02-20T09:37:57.633Z,585.00
2019-02-20T09:38:57.606Z,601.88
2019-02-20T09:39:57.442Z,624.38
2019-02-20T09:40:57.463Z,630.00
2019-02-20T09:41:57.464Z,630.00
2019-02-20T09:42:57.455Z,630.00
2019-02-20T09:43:57.403Z,624.38
2019-02-20T09:44:58.111Z,635.62
2019-02-20T09:45:57.436Z,630.00
2019-02-20T09:46:57.368Z,613.12
2019-02-20T09:47:57.373Z,596.25
2019-02-20T09:48:57.397Z,573.75
2019-02-20T09:49:57.345Z,556.88
2019-02-20T09:50:57.347Z,540.00
2019-02-20T09:51:57.347Z,540.00
2019-02-20T09:52:57.350Z,545.62
2019-02-20T09:53:57.386Z,551.25
2019-02-20T09:54:57.383Z,551.25
2019-02-20T09:55:57.303Z,551.25
2019-02-20T09:56:57.269Z,540.00
2019-02-20T09:57:57.305Z,534.38
2019-02-20T09:58:57.329Z,528.75
2019-02-20T09:59:57.257Z,528.75
2019-02-20T10:00:57.286Z,528.75
2019-02-20T10:01:57.336Z,540.00
2019-02-20T10:02:57.210Z,534.38
2019-02-20T10:03:57.367Z,511.88
2019-02-20T10:04:57.322Z,506.25
2019-02-20T10:05:57.243Z,506.25
2019-02-20T10:06:57.365Z,511.88
2019-02-20T10:07:57.314Z,506.25
2019-02-20T10:08:57.242Z,528.75
2019-02-20T10:09:57.212Z,562.50
2019-02-20T10:10:57.288Z,596.25
2019-02-20T10:11:57.091Z,618.75
2019-02-20T10:12:57.084Z,646.88
2019-02-20T10:13:57.102Z,663.75
2019-02-20T10:14:57.105Z,680.62
2019-02-20T10:15:57.095Z,691.88
2019-02-20T10:16:57.044Z,697.50
2019-02-20T10:17:57.057Z,697.50
2019-02-20T10:18:57.128Z,686.25
2019-02-20T10:19:57.142Z,680.62
2019-02-20T10:20:57.004Z,675.00
2019-02-20T10:21:56.992Z,669.38
2019-02-20T10:22:57.011Z,669.38
2019-02-20T10:23:57.009Z,680.62
2019-02-20T10:24:57.025Z,697.50
2019-02-20T10:26:00.790Z,697.50
2019-02-20T10:27:00.674Z,680.62
2019-02-20T10:27:56.920Z,663.75
2019-02-20T10:28:56.931Z,624.38
2019-02-20T10:29:56.929Z,590.62
2019-02-20T10:30:56.941Z,585.00
2019-02-20T10:31:56.898Z,601.88
2019-02-20T10:32:56.866Z,613.12
2019-02-20T10:33:56.878Z,630.00
2019-02-20T10:34:56.844Z,646.88
2019-02-20T10:35:56.844Z,669.38
2019-02-20T10:36:56.824Z,691.88
2019-02-20T10:37:56.851Z,708.75
2019-02-20T10:38:56.860Z,720.00
2019-02-20T10:39:56.860Z,714.38
2019-02-20T10:40:56.785Z,703.12
2019-02-20T10:41:56.796Z,686.25
2019-02-20T10:42:56.758Z,680.62
2019-02-20T10:43:56.772Z,675.00
2019-02-20T10:44:56.731Z,675.00
2019-02-20T10:45:56.733Z,669.38
2019-02-20T10:46:56.715Z,663.75
2019-02-20T10:47:56.735Z,669.38
2019-02-20T10:48:56.722Z,675.00
2019-02-20T10:49:56.756Z,680.62
2019-02-20T10:50:56.755Z,686.25
2019-02-20T10:51:56.743Z,703.12
2019-02-20T10:52:56.780Z,714.38
2019-02-20T10:53:56.818Z,714.38
2019-02-20T10:54:57.957Z,697.50
2019-02-20T10:55:56.641Z,669.38
2019-02-20T10:56:56.807Z,641.25
2019-02-20T10:57:56.598Z,613.12
2019-02-20T10:58:56.619Z,607.50
2019-02-20T10:59:56.620Z,635.62
2019-02-20T11:00:56.621Z,641.25
2019-02-20T11:01:56.548Z,675.00
2019-02-20T11:02:56.542Z,708.75
2019-02-20T11:03:56.529Z,736.88
2019-02-20T11:04:56.532Z,731.25
2019-02-20T11:05:56.516Z,742.50
2019-02-20T11:06:56.503Z,748.12
2019-02-20T11:07:56.487Z,742.50
2019-02-20T11:08:56.503Z,742.50
2019-02-20T11:09:56.461Z,720.00
2019-02-20T11:10:56.452Z,703.12
2019-02-20T11:11:56.444Z,691.88
2019-02-20T11:12:56.437Z,697.50
2019-02-20T11:13:56.420Z,686.25
2019-02-20T11:14:56.427Z,697.50
2019-02-20T11:15:56.406Z,697.50
2019-02-20T11:16:56.387Z,720.00
2019-02-20T11:17:56.385Z,714.38
2019-02-20T11:18:56.367Z,680.62
2019-02-20T11:19:56.375Z,663.75
2019-02-20T11:20:56.364Z,663.75
2019-02-20T11:21:56.362Z,680.62
2019-02-20T11:22:56.326Z,675.00
2019-02-20T11:23:56.314Z,691.88
2019-02-20T11:24:56.299Z,691.88
2019-02-20T11:25:56.311Z,686.25
2019-02-20T11:26:56.281Z,675.00
2019-02-20T11:27:56.270Z,663.75
2019-02-20T11:28:56.255Z,663.75
2019-02-20T11:29:56.276Z,663.75
2019-02-20T11:30:56.876Z,641.25
2019-02-20T11:31:56.595Z,641.25
2019-02-20T11:32:56.219Z,686.25
2019-02-20T11:33:56.200Z,725.62
2019-02-20T11:34:56.192Z,759.38
2019-02-20T11:35:56.208Z,725.62
2019-02-20T11:36:56.171Z,680.62
2019-02-20T11:37:56.164Z,669.38
2019-02-20T11:38:56.151Z,669.38
2019-02-20T11:39:56.142Z,703.12
2019-02-20T11:40:56.132Z,703.12
2019-02-20T11:41:56.148Z,669.38
2019-02-20T11:42:56.139Z,624.38
2019-02-20T11:43:56.105Z,618.75
2019-02-20T11:44:56.107Z,646.88
2019-02-20T11:45:56.078Z,663.75
2019-02-20T11:46:56.083Z,596.25
2019-02-20T11:47:56.052Z,545.62
2019-02-20T11:48:56.056Z,562.50
2019-02-20T11:49:56.035Z,663.75
2019-02-20T11:50:56.020Z,675.00
2019-02-20T11:51:56.039Z,624.38
2019-02-20T11:52:56.007Z,585.00
2019-02-20T11:53:55.986Z,596.25
2019-02-20T11:54:57.218Z,618.75
2019-02-20T11:55:55.967Z,601.88
2019-02-20T11:56:55.997Z,613.12
2019-02-20T11:58:00.811Z,635.62
2019-02-20T11:58:56.934Z,630.00
2019-02-20T11:59:55.925Z,630.00
2019-02-20T12:00:55.929Z,663.75
2019-02-20T12:01:55.904Z,635.62
2019-02-20T12:02:55.911Z,579.38
2019-02-20T12:03:55.918Z,568.12
2019-02-20T12:04:55.879Z,613.12
2019-02-20T12:05:55.882Z,658.12
2019-02-20T12:06:55.846Z,675.00
2019-02-20T12:07:55.836Z,691.88
2019-02-20T12:08:55.826Z,708.75
2019-02-20T12:09:55.820Z,691.88
2019-02-20T12:10:55.805Z,691.88
2019-02-20T12:11:55.814Z,686.25
2019-02-20T12:12:55.788Z,663.75
2019-02-20T12:13:55.771Z,658.12
2019-02-20T12:14:55.762Z,697.50
2019-02-20T12:15:55.782Z,753.75
2019-02-20T12:16:55.744Z,804.38
2019-02-20T12:17:55.728Z,855.00
2019-02-20T12:18:55.723Z,866.25
2019-02-20T12:19:55.706Z,877.50
2019-02-20T12:20:55.692Z,916.88
2019-02-20T12:21:55.707Z,956.25
2019-02-20T12:22:55.676Z,961.88
2019-02-20T12:23:55.679Z,945.00
2019-02-20T12:24:55.683Z,888.75
2019-02-20T12:25:55.659Z,793.12
2019-02-20T12:26:55.630Z,736.88
2019-02-20T12:27:55.619Z,675.00
2019-02-20T12:28:55.608Z,635.62
2019-02-20T12:29:55.604Z,607.50
2019-02-20T12:30:55.612Z,607.50
2019-02-20T12:31:55.576Z,613.12
2019-02-20T12:32:55.567Z,624.38
2019-02-20T12:33:55.578Z,641.25
2019-02-20T12:34:55.555Z,658.12
2019-02-20T12:35:55.564Z,663.75
2019-02-20T12:36:55.527Z,675.00
2019-02-20T12:37:55.508Z,669.38
2019-02-20T12:38:55.501Z,630.00
2019-02-20T12:39:55.489Z,585.00
2019-02-20T12:40:55.476Z,545.62
2019-02-20T12:41:55.489Z,523.12
2019-02-20T12:42:55.459Z,506.25
2019-02-20T12:43:55.449Z,506.25
2019-02-20T12:44:55.450Z,500.62
2019-02-20T12:45:55.488Z,500.62
2019-02-20T12:46:55.434Z,483.75
2019-02-20T12:47:55.405Z,478.12
2019-02-20T12:48:55.421Z,489.38
2019-02-20T12:49:55.378Z,517.50
2019-02-20T12:50:55.370Z,562.50
2019-02-20T12:51:55.363Z,613.12
2019-02-20T12:52:55.347Z,624.38
2019-02-20T12:53:55.342Z,630.00